sensor_id;sensor_type;location;lat;lon;timestamp;P1;durP1;ratioP1;P2;durP2;ratioP2
64609;SDS011;51019;46.090;6.350;2023-09-18T00:02:20;19.58;;;5.13;;
64609;SDS011;51019;46.090;6.350;2023-09-18T00:04:49;15.57;;;4.82;;
64609;SDS011;51019;46.090;6.350;2023-09-18T00:07:16;14.77;;;4.45;;
64609;SDS011;51019;46.090;6.350;2023-09-18T00:09:43;14.40;;;4.45;;
64609;SDS011;51019;46.090;6.350;2023-09-18T00:12:10;18.52;;;4.50;;
64609;SDS011;51019;46.090;6.350;2023-09-18T00:14:37;14.85;;;4.90;;
64609;SDS011;51019;46.090;6.350;2023-09-18T00:17:04;16.80;;;4.78;;
64609;SDS011;51019;46.090;6.350;2023-09-18T00:19:31;13.32;;;4.53;;
64609;SDS011;51019;46.090;6.350;2023-09-18T00:22:00;13.00;;;4.40;;
64609;SDS011;51019;46.090;6.350;2023-09-18T00:24:27;17.65;;;5.13;;
64609;SDS011;51019;46.090;6.350;2023-09-18T00:26:54;14.07;;;4.75;;
64609;SDS011;51019;46.090;6.350;2023-09-18T00:29:22;14.30;;;4.35;;
64609;SDS011;51019;46.090;6.350;2023-09-18T00:31:49;13.85;;;4.75;;
64609;SDS011;51019;46.090;6.350;2023-09-18T00:34:16;15.40;;;4.72;;
64609;SDS011;51019;46.090;6.350;2023-09-18T00:36:43;15.35;;;4.55;;
64609;SDS011;51019;46.090;6.350;2023-09-18T00:39:12;14.30;;;4.80;;
64609;SDS011;51019;46.090;6.350;2023-09-18T00:41:39;14.05;;;5.18;;
64609;SDS011;51019;46.090;6.350;2023-09-18T00:44:06;14.18;;;4.47;;
64609;SDS011;51019;46.090;6.350;2023-09-18T00:46:33;15.07;;;4.75;;
64609;SDS011;51019;46.090;6.350;2023-09-18T00:49:01;15.82;;;4.82;;
64609;SDS011;51019;46.090;6.350;2023-09-18T00:51:28;20.08;;;4.88;;
64609;SDS011;51019;46.090;6.350;2023-09-18T00:53:55;16.70;;;5.28;;
64609;SDS011;51019;46.090;6.350;2023-09-18T00:56:24;14.05;;;5.10;;
64609;SDS011;51019;46.090;6.350;2023-09-18T00:58:51;12.57;;;4.85;;
64609;SDS011;51019;46.090;6.350;2023-09-18T01:01:19;16.52;;;5.10;;
64609;SDS011;51019;46.090;6.350;2023-09-18T01:03:48;13.63;;;5.03;;
64609;SDS011;51019;46.090;6.350;2023-09-18T01:06:17;12.52;;;4.35;;
64609;SDS011;51019;46.090;6.350;2023-09-18T01:08:46;17.63;;;4.80;;
64609;SDS011;51019;46.090;6.350;2023-09-18T01:11:19;12.60;;;4.63;;
64609;SDS011;51019;46.090;6.350;2023-09-18T01:13:58;13.35;;;4.97;;
64609;SDS011;51019;46.090;6.350;2023-09-18T01:16:35;14.13;;;5.30;;
64609;SDS011;51019;46.090;6.350;2023-09-18T01:19:15;14.32;;;5.32;;
64609;SDS011;51019;46.090;6.350;2023-09-18T01:21:44;16.50;;;4.85;;
64609;SDS011;51019;46.090;6.350;2023-09-18T01:24:13;17.15;;;5.03;;
64609;SDS011;51019;46.090;6.350;2023-09-18T01:26:40;17.63;;;4.28;;
64609;SDS011;51019;46.090;6.350;2023-09-18T01:29:07;16.90;;;5.28;;
64609;SDS011;51019;46.090;6.350;2023-09-18T01:31:34;16.33;;;5.30;;
64609;SDS011;51019;46.090;6.350;2023-09-18T01:34:01;15.20;;;5.35;;
64609;SDS011;51019;46.090;6.350;2023-09-18T01:36:28;19.15;;;5.65;;
64609;SDS011;51019;46.090;6.350;2023-09-18T01:38:55;16.80;;;5.05;;
64609;SDS011;51019;46.090;6.350;2023-09-18T01:41:25;17.95;;;4.97;;
64609;SDS011;51019;46.090;6.350;2023-09-18T01:43:52;31.83;;;6.35;;
64609;SDS011;51019;46.090;6.350;2023-09-18T01:46:20;13.27;;;4.63;;
64609;SDS011;51019;46.090;6.350;2023-09-18T01:48:47;14.60;;;4.28;;
64609;SDS011;51019;46.090;6.350;2023-09-18T01:51:14;13.95;;;4.40;;
64609;SDS011;51019;46.090;6.350;2023-09-18T01:53:41;13.13;;;4.95;;
64609;SDS011;51019;46.090;6.350;2023-09-18T01:56:09;16.63;;;4.72;;
64609;SDS011;51019;46.090;6.350;2023-09-18T01:58:37;14.73;;;5.03;;
64609;SDS011;51019;46.090;6.350;2023-09-18T02:01:04;16.00;;;5.03;;
64609;SDS011;51019;46.090;6.350;2023-09-18T02:03:31;15.77;;;4.45;;
64609;SDS011;51019;46.090;6.350;2023-09-18T02:05:58;18.10;;;5.63;;
64609;SDS011;51019;46.090;6.350;2023-09-18T02:08:25;14.25;;;4.53;;
64609;SDS011;51019;46.090;6.350;2023-09-18T02:10:52;17.80;;;5.13;;
64609;SDS011;51019;46.090;6.350;2023-09-18T02:13:19;15.02;;;4.90;;
64609;SDS011;51019;46.090;6.350;2023-09-18T02:15:48;14.98;;;4.85;;
64609;SDS011;51019;46.090;6.350;2023-09-18T02:18:15;14.80;;;5.22;;
64609;SDS011;51019;46.090;6.350;2023-09-18T02:20:42;15.18;;;4.95;;
64609;SDS011;51019;46.090;6.350;2023-09-18T02:23:12;19.02;;;6.25;;
64609;SDS011;51019;46.090;6.350;2023-09-18T02:25:39;17.38;;;5.68;;
64609;SDS011;51019;46.090;6.350;2023-09-18T02:28:06;13.63;;;4.97;;
64609;SDS011;51019;46.090;6.350;2023-09-18T02:30:33;15.02;;;4.70;;
64609;SDS011;51019;46.090;6.350;2023-09-18T02:33:02;14.85;;;4.50;;
64609;SDS011;51019;46.090;6.350;2023-09-18T02:35:29;17.08;;;5.13;;
64609;SDS011;51019;46.090;6.350;2023-09-18T02:37:56;18.77;;;5.20;;
64609;SDS011;51019;46.090;6.350;2023-09-18T02:40:24;14.25;;;4.57;;
64609;SDS011;51019;46.090;6.350;2023-09-18T02:42:51;17.92;;;4.45;;
64609;SDS011;51019;46.090;6.350;2023-09-18T02:45:18;12.90;;;4.60;;
64609;SDS011;51019;46.090;6.350;2023-09-18T02:47:45;16.05;;;4.47;;
64609;SDS011;51019;46.090;6.350;2023-09-18T02:50:14;16.75;;;4.75;;
64609;SDS011;51019;46.090;6.350;2023-09-18T02:52:41;18.52;;;4.90;;
64609;SDS011;51019;46.090;6.350;2023-09-18T02:55:08;15.50;;;4.32;;
64609;SDS011;51019;46.090;6.350;2023-09-18T02:57:36;14.38;;;5.45;;
64609;SDS011;51019;46.090;6.350;2023-09-18T03:00:03;16.48;;;4.68;;
64609;SDS011;51019;46.090;6.350;2023-09-18T03:02:31;14.15;;;4.60;;
64609;SDS011;51019;46.090;6.350;2023-09-18T03:04:57;16.38;;;5.03;;
64609;SDS011;51019;46.090;6.350;2023-09-18T03:07:26;13.90;;;4.53;;
64609;SDS011;51019;46.090;6.350;2023-09-18T03:09:54;17.67;;;4.40;;
64609;SDS011;51019;46.090;6.350;2023-09-18T03:12:21;15.52;;;4.40;;
64609;SDS011;51019;46.090;6.350;2023-09-18T03:14:48;13.43;;;4.60;;
64609;SDS011;51019;46.090;6.350;2023-09-18T03:17:15;17.70;;;5.00;;
64609;SDS011;51019;46.090;6.350;2023-09-18T03:19:42;14.63;;;4.47;;
64609;SDS011;51019;46.090;6.350;2023-09-18T03:22:09;14.30;;;4.95;;
64609;SDS011;51019;46.090;6.350;2023-09-18T03:24:38;16.83;;;5.18;;
64609;SDS011;51019;46.090;6.350;2023-09-18T03:27:04;15.50;;;4.63;;
64609;SDS011;51019;46.090;6.350;2023-09-18T03:29:31;13.75;;;4.20;;
64609;SDS011;51019;46.090;6.350;2023-09-18T03:31:58;13.23;;;4.30;;
64609;SDS011;51019;46.090;6.350;2023-09-18T03:34:25;16.67;;;4.95;;
64609;SDS011;51019;46.090;6.350;2023-09-18T03:36:52;16.83;;;5.15;;
64609;SDS011;51019;46.090;6.350;2023-09-18T03:39:19;15.20;;;4.82;;
64609;SDS011;51019;46.090;6.350;2023-09-18T03:41:48;17.65;;;4.85;;
64609;SDS011;51019;46.090;6.350;2023-09-18T03:44:16;13.38;;;4.13;;
64609;SDS011;51019;46.090;6.350;2023-09-18T03:46:43;17.30;;;5.10;;
64609;SDS011;51019;46.090;6.350;2023-09-18T03:49:10;15.65;;;4.13;;
64609;SDS011;51019;46.090;6.350;2023-09-18T03:51:37;17.05;;;4.65;;
64609;SDS011;51019;46.090;6.350;2023-09-18T03:54:04;15.57;;;4.32;;
64609;SDS011;51019;46.090;6.350;2023-09-18T03:56:31;16.27;;;4.20;;
64609;SDS011;51019;46.090;6.350;2023-09-18T03:58:59;16.63;;;4.55;;
64609;SDS011;51019;46.090;6.350;2023-09-18T04:01:26;15.85;;;4.13;;
64609;SDS011;51019;46.090;6.350;2023-09-18T04:03:55;14.02;;;4.53;;
64609;SDS011;51019;46.090;6.350;2023-09-18T04:06:23;13.70;;;4.50;;
64609;SDS011;51019;46.090;6.350;2023-09-18T04:08:50;16.15;;;4.72;;
64609;SDS011;51019;46.090;6.350;2023-09-18T04:11:19;15.77;;;4.53;;
64609;SDS011;51019;46.090;6.350;2023-09-18T04:13:51;13.18;;;4.22;;
64609;SDS011;51019;46.090;6.350;2023-09-18T04:16:20;16.02;;;4.63;;
64609;SDS011;51019;46.090;6.350;2023-09-18T04:18:47;13.48;;;4.20;;
64609;SDS011;51019;46.090;6.350;2023-09-18T04:21:14;20.58;;;5.10;;
64609;SDS011;51019;46.090;6.350;2023-09-18T04:23:41;14.30;;;4.90;;
64609;SDS011;51019;46.090;6.350;2023-09-18T04:26:08;14.30;;;4.63;;
64609;SDS011;51019;46.090;6.350;2023-09-18T04:28:37;15.18;;;4.88;;
64609;SDS011;51019;46.090;6.350;2023-09-18T04:31:04;17.90;;;4.72;;
64609;SDS011;51019;46.090;6.350;2023-09-18T04:33:33;16.73;;;5.20;;
64609;SDS011;51019;46.090;6.350;2023-09-18T04:36:00;18.13;;;4.93;;
64609;SDS011;51019;46.090;6.350;2023-09-18T04:38:26;17.35;;;5.18;;
64609;SDS011;51019;46.090;6.350;2023-09-18T04:40:57;15.77;;;5.22;;
64609;SDS011;51019;46.090;6.350;2023-09-18T04:43:24;16.13;;;5.30;;
64609;SDS011;51019;46.090;6.350;2023-09-18T04:45:51;15.18;;;4.97;;
64609;SDS011;51019;46.090;6.350;2023-09-18T04:48:18;13.63;;;3.85;;
64609;SDS011;51019;46.090;6.350;2023-09-18T04:50:46;16.70;;;3.33;;
64609;SDS011;51019;46.090;6.350;2023-09-18T04:53:13;17.05;;;3.55;;
64609;SDS011;51019;46.090;6.350;2023-09-18T04:55:40;14.65;;;3.22;;
64609;SDS011;51019;46.090;6.350;2023-09-18T04:58:07;14.50;;;2.95;;
64609;SDS011;51019;46.090;6.350;2023-09-18T05:00:34;12.63;;;2.92;;
64609;SDS011;51019;46.090;6.350;2023-09-18T05:03:01;14.02;;;3.45;;
64609;SDS011;51019;46.090;6.350;2023-09-18T05:05:29;14.00;;;3.03;;
64609;SDS011;51019;46.090;6.350;2023-09-18T05:07:57;13.18;;;3.75;;
64609;SDS011;51019;46.090;6.350;2023-09-18T05:10:24;12.93;;;2.70;;
64609;SDS011;51019;46.090;6.350;2023-09-18T05:12:51;15.52;;;3.85;;
64609;SDS011;51019;46.090;6.350;2023-09-18T05:15:23;25.17;;;4.78;;
64609;SDS011;51019;46.090;6.350;2023-09-18T05:17:51;13.23;;;2.90;;
64609;SDS011;51019;46.090;6.350;2023-09-18T05:20:22;11.75;;;2.35;;
64609;SDS011;51019;46.090;6.350;2023-09-18T05:22:49;11.00;;;2.20;;
64609;SDS011;51019;46.090;6.350;2023-09-18T05:25:20;5.88;;;1.45;;
64609;SDS011;51019;46.090;6.350;2023-09-18T05:27:48;6.97;;;1.70;;
64609;SDS011;51019;46.090;6.350;2023-09-18T05:30:20;10.93;;;2.47;;
64609;SDS011;51019;46.090;6.350;2023-09-18T05:32:50;8.77;;;1.98;;
64609;SDS011;51019;46.090;6.350;2023-09-18T05:35:17;8.82;;;1.83;;
64609;SDS011;51019;46.090;6.350;2023-09-18T05:37:44;14.93;;;3.00;;
64609;SDS011;51019;46.090;6.350;2023-09-18T05:40:11;13.88;;;3.25;;
64609;SDS011;51019;46.090;6.350;2023-09-18T05:42:42;12.25;;;2.60;;
64609;SDS011;51019;46.090;6.350;2023-09-18T05:45:09;11.30;;;2.03;;
64609;SDS011;51019;46.090;6.350;2023-09-18T05:47:37;13.98;;;3.00;;
64609;SDS011;51019;46.090;6.350;2023-09-18T05:50:05;15.38;;;2.15;;
64609;SDS011;51019;46.090;6.350;2023-09-18T05:52:33;8.48;;;2.00;;
64609;SDS011;51019;46.090;6.350;2023-09-18T05:55:00;9.82;;;1.95;;
64609;SDS011;51019;46.090;6.350;2023-09-18T05:57:27;11.30;;;1.85;;
64609;SDS011;51019;46.090;6.350;2023-09-18T05:59:55;7.65;;;1.77;;
64609;SDS011;51019;46.090;6.350;2023-09-18T06:02:22;7.88;;;1.95;;
64609;SDS011;51019;46.090;6.350;2023-09-18T06:04:50;6.85;;;1.50;;
64609;SDS011;51019;46.090;6.350;2023-09-18T06:07:20;10.80;;;2.03;;
64609;SDS011;51019;46.090;6.350;2023-09-18T06:09:48;6.90;;;1.60;;
64609;SDS011;51019;46.090;6.350;2023-09-18T06:12:14;7.45;;;1.48;;
64609;SDS011;51019;46.090;6.350;2023-09-18T06:14:41;7.13;;;1.50;;
64609;SDS011;51019;46.090;6.350;2023-09-18T06:17:09;7.22;;;1.60;;
64609;SDS011;51019;46.090;6.350;2023-09-18T06:19:36;8.32;;;1.52;;
64609;SDS011;51019;46.090;6.350;2023-09-18T06:22:04;9.38;;;2.03;;
64609;SDS011;51019;46.090;6.350;2023-09-18T06:24:32;6.95;;;1.42;;
64609;SDS011;51019;46.090;6.350;2023-09-18T06:27:00;6.90;;;1.50;;
64609;SDS011;51019;46.090;6.350;2023-09-18T06:29:26;8.05;;;1.80;;
64609;SDS011;51019;46.090;6.350;2023-09-18T06:31:53;8.95;;;2.03;;
64609;SDS011;51019;46.090;6.350;2023-09-18T06:34:22;9.98;;;1.98;;
64609;SDS011;51019;46.090;6.350;2023-09-18T06:36:50;9.18;;;1.80;;
64609;SDS011;51019;46.090;6.350;2023-09-18T06:39:16;8.73;;;2.17;;
64609;SDS011;51019;46.090;6.350;2023-09-18T06:41:45;5.80;;;1.73;;
64609;SDS011;51019;46.090;6.350;2023-09-18T06:44:12;9.35;;;2.08;;
64609;SDS011;51019;46.090;6.350;2023-09-18T06:46:39;15.30;;;2.05;;
64609;SDS011;51019;46.090;6.350;2023-09-18T06:49:06;11.02;;;2.22;;
64609;SDS011;51019;46.090;6.350;2023-09-18T06:51:34;8.27;;;2.05;;
64609;SDS011;51019;46.090;6.350;2023-09-18T06:54:04;9.35;;;2.70;;
64609;SDS011;51019;46.090;6.350;2023-09-18T06:56:31;8.18;;;2.13;;
64609;SDS011;51019;46.090;6.350;2023-09-18T06:58:58;10.00;;;2.03;;
64609;SDS011;51019;46.090;6.350;2023-09-18T07:01:24;9.75;;;2.88;;
64609;SDS011;51019;46.090;6.350;2023-09-18T07:03:53;9.05;;;2.38;;
64609;SDS011;51019;46.090;6.350;2023-09-18T07:06:21;10.25;;;2.40;;
64609;SDS011;51019;46.090;6.350;2023-09-18T07:08:49;11.70;;;2.63;;
64609;SDS011;51019;46.090;6.350;2023-09-18T07:11:18;9.68;;;2.38;;
64609;SDS011;51019;46.090;6.350;2023-09-18T07:13:45;10.55;;;2.70;;
64609;SDS011;51019;46.090;6.350;2023-09-18T07:16:12;11.23;;;2.40;;
64609;SDS011;51019;46.090;6.350;2023-09-18T07:18:38;9.50;;;2.20;;
64609;SDS011;51019;46.090;6.350;2023-09-18T07:21:07;9.55;;;2.25;;
64609;SDS011;51019;46.090;6.350;2023-09-18T07:23:34;11.65;;;2.65;;
64609;SDS011;51019;46.090;6.350;2023-09-18T07:26:04;11.25;;;2.08;;
64609;SDS011;51019;46.090;6.350;2023-09-18T07:28:32;12.68;;;2.40;;
64609;SDS011;51019;46.090;6.350;2023-09-18T07:31:04;8.57;;;2.13;;
64609;SDS011;51019;46.090;6.350;2023-09-18T07:33:31;10.63;;;2.25;;
64609;SDS011;51019;46.090;6.350;2023-09-18T07:35:58;10.88;;;2.42;;
64609;SDS011;51019;46.090;6.350;2023-09-18T07:38:25;11.63;;;2.78;;
64609;SDS011;51019;46.090;6.350;2023-09-18T07:40:52;13.63;;;2.75;;
64609;SDS011;51019;46.090;6.350;2023-09-18T07:43:20;10.15;;;2.60;;
64609;SDS011;51019;46.090;6.350;2023-09-18T07:45:48;9.43;;;2.35;;
64609;SDS011;51019;46.090;6.350;2023-09-18T07:48:15;10.25;;;2.40;;
64609;SDS011;51019;46.090;6.350;2023-09-18T07:50:45;14.38;;;2.50;;
64609;SDS011;51019;46.090;6.350;2023-09-18T07:53:14;11.90;;;2.80;;
64609;SDS011;51019;46.090;6.350;2023-09-18T07:55:41;13.13;;;2.30;;
64609;SDS011;51019;46.090;6.350;2023-09-18T07:58:08;11.77;;;2.42;;
64609;SDS011;51019;46.090;6.350;2023-09-18T08:00:38;9.63;;;2.33;;
64609;SDS011;51019;46.090;6.350;2023-09-18T08:03:05;9.20;;;2.05;;
64609;SDS011;51019;46.090;6.350;2023-09-18T08:05:32;12.50;;;2.17;;
64609;SDS011;51019;46.090;6.350;2023-09-18T08:07:59;11.88;;;2.35;;
64609;SDS011;51019;46.090;6.350;2023-09-18T08:10:26;10.40;;;2.25;;
64609;SDS011;51019;46.090;6.350;2023-09-18T08:12:53;10.27;;;2.22;;
64609;SDS011;51019;46.090;6.350;2023-09-18T08:15:21;14.10;;;2.40;;
64609;SDS011;51019;46.090;6.350;2023-09-18T08:17:49;10.85;;;2.30;;
64609;SDS011;51019;46.090;6.350;2023-09-18T08:20:18;10.65;;;2.35;;
64609;SDS011;51019;46.090;6.350;2023-09-18T08:22:45;8.73;;;2.10;;
64609;SDS011;51019;46.090;6.350;2023-09-18T08:25:15;9.00;;;1.70;;
64609;SDS011;51019;46.090;6.350;2023-09-18T08:27:41;7.13;;;1.60;;
64609;SDS011;51019;46.090;6.350;2023-09-18T08:30:09;8.18;;;1.60;;
64609;SDS011;51019;46.090;6.350;2023-09-18T08:32:37;4.95;;;1.40;;
64609;SDS011;51019;46.090;6.350;2023-09-18T08:35:07;6.13;;;1.52;;
64609;SDS011;51019;46.090;6.350;2023-09-18T08:37:34;8.68;;;1.70;;
64609;SDS011;51019;46.090;6.350;2023-09-18T08:40:02;7.20;;;1.88;;
64609;SDS011;51019;46.090;6.350;2023-09-18T08:42:35;6.03;;;1.50;;
64609;SDS011;51019;46.090;6.350;2023-09-18T08:45:05;6.70;;;1.52;;
64609;SDS011;51019;46.090;6.350;2023-09-18T08:47:36;10.40;;;1.70;;
64609;SDS011;51019;46.090;6.350;2023-09-18T08:50:07;9.23;;;1.90;;
64609;SDS011;51019;46.090;6.350;2023-09-18T08:52:35;6.82;;;1.70;;
64609;SDS011;51019;46.090;6.350;2023-09-18T08:55:02;6.35;;;1.58;;
64609;SDS011;51019;46.090;6.350;2023-09-18T08:57:30;10.07;;;1.77;;
64609;SDS011;51019;46.090;6.350;2023-09-18T08:59:58;7.18;;;1.58;;
64609;SDS011;51019;46.090;6.350;2023-09-18T09:04:58;8.05;;;1.50;;
64609;SDS011;51019;46.090;6.350;2023-09-18T09:07:27;7.35;;;1.52;;
64609;SDS011;51019;46.090;6.350;2023-09-18T09:09:56;7.32;;;1.50;;
64609;SDS011;51019;46.090;6.350;2023-09-18T09:15:21;6.65;;;1.50;;
64609;SDS011;51019;46.090;6.350;2023-09-18T09:17:51;6.65;;;1.58;;
64609;SDS011;51019;46.090;6.350;2023-09-18T09:20:19;7.47;;;1.50;;
64609;SDS011;51019;46.090;6.350;2023-09-18T09:22:47;6.07;;;1.50;;
64609;SDS011;51019;46.090;6.350;2023-09-18T09:25:22;5.80;;;1.40;;
64609;SDS011;51019;46.090;6.350;2023-09-18T09:27:51;7.03;;;1.38;;
64609;SDS011;51019;46.090;6.350;2023-09-18T09:30:19;3.80;;;1.27;;
64609;SDS011;51019;46.090;6.350;2023-09-18T09:32:47;5.32;;;1.40;;
64609;SDS011;51019;46.090;6.350;2023-09-18T09:35:20;9.13;;;1.73;;
64609;SDS011;51019;46.090;6.350;2023-09-18T09:37:50;9.25;;;1.70;;
64609;SDS011;51019;46.090;6.350;2023-09-18T09:40:19;6.25;;;1.45;;
64609;SDS011;51019;46.090;6.350;2023-09-18T09:42:46;6.45;;;1.52;;
64609;SDS011;51019;46.090;6.350;2023-09-18T09:45:14;5.07;;;1.33;;
64609;SDS011;51019;46.090;6.350;2023-09-18T09:47:42;5.50;;;1.35;;
64609;SDS011;51019;46.090;6.350;2023-09-18T09:50:10;4.43;;;1.17;;
64609;SDS011;51019;46.090;6.350;2023-09-18T09:52:42;6.05;;;1.40;;
64609;SDS011;51019;46.090;6.350;2023-09-18T09:55:19;7.53;;;1.33;;
64609;SDS011;51019;46.090;6.350;2023-09-18T09:57:50;3.88;;;1.10;;
64609;SDS011;51019;46.090;6.350;2023-09-18T10:00:22;5.80;;;1.35;;
64609;SDS011;51019;46.090;6.350;2023-09-18T10:03:01;5.40;;;1.60;;
64609;SDS011;51019;46.090;6.350;2023-09-18T10:05:30;8.13;;;1.58;;
64609;SDS011;51019;46.090;6.350;2023-09-18T10:07:59;6.20;;;1.48;;
64609;SDS011;51019;46.090;6.350;2023-09-18T10:10:30;6.15;;;1.50;;
64609;SDS011;51019;46.090;6.350;2023-09-18T10:13:00;6.32;;;1.58;;
64609;SDS011;51019;46.090;6.350;2023-09-18T10:15:34;6.70;;;1.48;;
64609;SDS011;51019;46.090;6.350;2023-09-18T10:18:05;7.97;;;1.80;;
64609;SDS011;51019;46.090;6.350;2023-09-18T10:20:39;7.00;;;1.50;;
64609;SDS011;51019;46.090;6.350;2023-09-18T10:23:12;6.75;;;1.60;;
64609;SDS011;51019;46.090;6.350;2023-09-18T10:25:52;7.18;;;1.40;;
64609;SDS011;51019;46.090;6.350;2023-09-18T10:28:23;7.65;;;1.60;;
64609;SDS011;51019;46.090;6.350;2023-09-18T10:30:56;8.43;;;1.58;;
64609;SDS011;51019;46.090;6.350;2023-09-18T10:33:24;7.00;;;1.80;;
64609;SDS011;51019;46.090;6.350;2023-09-18T10:35:52;7.40;;;1.85;;
64609;SDS011;51019;46.090;6.350;2023-09-18T10:38:20;5.75;;;1.55;;
64609;SDS011;51019;46.090;6.350;2023-09-18T10:40:47;9.30;;;2.03;;
64609;SDS011;51019;46.090;6.350;2023-09-18T10:43:18;8.02;;;2.10;;
64609;SDS011;51019;46.090;6.350;2023-09-18T10:45:44;8.63;;;1.75;;
64609;SDS011;51019;46.090;6.350;2023-09-18T10:48:12;9.82;;;1.92;;
64609;SDS011;51019;46.090;6.350;2023-09-18T10:50:39;5.65;;;1.40;;
64609;SDS011;51019;46.090;6.350;2023-09-18T10:53:11;8.05;;;1.90;;
64609;SDS011;51019;46.090;6.350;2023-09-18T10:55:38;9.63;;;2.00;;
64609;SDS011;51019;46.090;6.350;2023-09-18T10:58:05;9.23;;;2.03;;
64609;SDS011;51019;46.090;6.350;2023-09-18T11:00:34;9.95;;;2.00;;
64609;SDS011;51019;46.090;6.350;2023-09-18T11:03:11;8.52;;;2.00;;
64609;SDS011;51019;46.090;6.350;2023-09-18T11:05:40;9.60;;;2.00;;
64609;SDS011;51019;46.090;6.350;2023-09-18T11:08:25;6.72;;;2.00;;
64609;SDS011;51019;46.090;6.350;2023-09-18T11:10:59;10.90;;;2.00;;
64609;SDS011;51019;46.090;6.350;2023-09-18T11:13:35;9.75;;;1.83;;
64609;SDS011;51019;46.090;6.350;2023-09-18T11:16:15;9.80;;;1.88;;
64609;SDS011;51019;46.090;6.350;2023-09-18T11:18:45;6.97;;;1.90;;
64609;SDS011;51019;46.090;6.350;2023-09-18T11:21:15;7.60;;;1.80;;
64609;SDS011;51019;46.090;6.350;2023-09-18T11:23:43;9.88;;;1.90;;
64609;SDS011;51019;46.090;6.350;2023-09-18T11:26:10;10.52;;;2.20;;
64609;SDS011;51019;46.090;6.350;2023-09-18T11:28:37;6.38;;;1.60;;
64609;SDS011;51019;46.090;6.350;2023-09-18T11:31:08;9.38;;;2.13;;
64609;SDS011;51019;46.090;6.350;2023-09-18T11:33:39;8.25;;;1.65;;
64609;SDS011;51019;46.090;6.350;2023-09-18T11:36:08;8.85;;;1.83;;
64609;SDS011;51019;46.090;6.350;2023-09-18T11:38:52;8.15;;;1.92;;
64609;SDS011;51019;46.090;6.350;2023-09-18T11:41:20;6.20;;;1.60;;
64609;SDS011;51019;46.090;6.350;2023-09-18T11:43:49;7.47;;;1.67;;
64609;SDS011;51019;46.090;6.350;2023-09-18T11:46:19;5.70;;;1.55;;
64609;SDS011;51019;46.090;6.350;2023-09-18T11:48:49;8.82;;;1.98;;
64609;SDS011;51019;46.090;6.350;2023-09-18T11:51:23;7.18;;;1.80;;
64609;SDS011;51019;46.090;6.350;2023-09-18T11:53:52;7.22;;;1.70;;
64609;SDS011;51019;46.090;6.350;2023-09-18T11:56:21;8.93;;;1.77;;
64609;SDS011;51019;46.090;6.350;2023-09-18T11:58:48;8.63;;;1.90;;
64609;SDS011;51019;46.090;6.350;2023-09-18T12:01:17;8.32;;;1.90;;
64609;SDS011;51019;46.090;6.350;2023-09-18T12:03:45;10.05;;;2.17;;
64609;SDS011;51019;46.090;6.350;2023-09-18T12:06:15;9.30;;;2.10;;
64609;SDS011;51019;46.090;6.350;2023-09-18T12:08:42;5.97;;;1.52;;
64609;SDS011;51019;46.090;6.350;2023-09-18T12:11:11;9.43;;;1.95;;
64609;SDS011;51019;46.090;6.350;2023-09-18T12:13:42;6.45;;;1.70;;
64609;SDS011;51019;46.090;6.350;2023-09-18T12:16:09;11.32;;;2.20;;
64609;SDS011;51019;46.090;6.350;2023-09-18T12:18:35;8.98;;;1.60;;
64609;SDS011;51019;46.090;6.350;2023-09-18T12:21:05;5.18;;;1.65;;
64609;SDS011;51019;46.090;6.350;2023-09-18T12:23:41;7.28;;;1.75;;
64609;SDS011;51019;46.090;6.350;2023-09-18T12:26:10;8.23;;;2.08;;
64609;SDS011;51019;46.090;6.350;2023-09-18T12:28:39;7.28;;;1.70;;
64609;SDS011;51019;46.090;6.350;2023-09-18T12:31:09;7.55;;;1.70;;
64609;SDS011;51019;46.090;6.350;2023-09-18T12:33:37;9.77;;;2.15;;
64609;SDS011;51019;46.090;6.350;2023-09-18T12:36:05;7.13;;;1.80;;
64609;SDS011;51019;46.090;6.350;2023-09-18T12:38:34;7.53;;;2.08;;
64609;SDS011;51019;46.090;6.350;2023-09-18T12:41:05;7.80;;;1.85;;
64609;SDS011;51019;46.090;6.350;2023-09-18T12:43:35;7.25;;;1.67;;
64609;SDS011;51019;46.090;6.350;2023-09-18T12:46:05;8.10;;;1.80;;
64609;SDS011;51019;46.090;6.350;2023-09-18T12:48:32;9.40;;;1.95;;
64609;SDS011;51019;46.090;6.350;2023-09-18T12:51:03;8.77;;;1.83;;
64609;SDS011;51019;46.090;6.350;2023-09-18T12:53:30;8.95;;;1.63;;
64609;SDS011;51019;46.090;6.350;2023-09-18T12:56:06;9.75;;;1.95;;
64609;SDS011;51019;46.090;6.350;2023-09-18T12:58:35;8.45;;;1.90;;
64609;SDS011;51019;46.090;6.350;2023-09-18T13:01:05;9.98;;;1.80;;
64609;SDS011;51019;46.090;6.350;2023-09-18T13:03:35;6.78;;;1.73;;
64609;SDS011;51019;46.090;6.350;2023-09-18T13:06:08;10.52;;;2.42;;
64609;SDS011;51019;46.090;6.350;2023-09-18T13:08:39;7.55;;;1.70;;
64609;SDS011;51019;46.090;6.350;2023-09-18T13:11:07;8.65;;;1.75;;
64609;SDS011;51019;46.090;6.350;2023-09-18T13:13:36;9.35;;;1.98;;
64609;SDS011;51019;46.090;6.350;2023-09-18T13:16:04;7.43;;;1.60;;
64609;SDS011;51019;46.090;6.350;2023-09-18T13:18:32;7.32;;;1.80;;
64609;SDS011;51019;46.090;6.350;2023-09-18T13:20:59;8.00;;;1.58;;
64609;SDS011;51019;46.090;6.350;2023-09-18T13:23:29;6.72;;;1.70;;
64609;SDS011;51019;46.090;6.350;2023-09-18T13:26:00;6.07;;;1.20;;
64609;SDS011;51019;46.090;6.350;2023-09-18T13:28:30;5.80;;;1.30;;
64609;SDS011;51019;46.090;6.350;2023-09-18T13:30:59;6.15;;;1.42;;
64609;SDS011;51019;46.090;6.350;2023-09-18T13:33:32;8.55;;;2.00;;
64609;SDS011;51019;46.090;6.350;2023-09-18T13:35:59;7.18;;;1.60;;
64609;SDS011;51019;46.090;6.350;2023-09-18T13:38:26;7.07;;;1.60;;
64609;SDS011;51019;46.090;6.350;2023-09-18T13:40:53;6.50;;;1.98;;
64609;SDS011;51019;46.090;6.350;2023-09-18T13:43:21;2.88;;;1.05;;
64609;SDS011;51019;46.090;6.350;2023-09-18T13:45:50;6.85;;;1.60;;
64609;SDS011;51019;46.090;6.350;2023-09-18T13:48:17;4.85;;;1.20;;
64609;SDS011;51019;46.090;6.350;2023-09-18T13:50:46;4.80;;;1.40;;
64609;SDS011;51019;46.090;6.350;2023-09-18T13:53:14;5.93;;;1.52;;
64609;SDS011;51019;46.090;6.350;2023-09-18T13:55:41;6.88;;;1.73;;
64609;SDS011;51019;46.090;6.350;2023-09-18T13:58:08;5.25;;;1.50;;
64609;SDS011;51019;46.090;6.350;2023-09-18T14:00:35;4.20;;;1.20;;
64609;SDS011;51019;46.090;6.350;2023-09-18T14:03:04;7.72;;;1.60;;
64609;SDS011;51019;46.090;6.350;2023-09-18T14:05:31;5.47;;;1.20;;
64609;SDS011;51019;46.090;6.350;2023-09-18T14:07:59;4.93;;;1.20;;
64609;SDS011;51019;46.090;6.350;2023-09-18T14:10:26;6.95;;;1.60;;
64609;SDS011;51019;46.090;6.350;2023-09-18T14:12:53;6.05;;;1.67;;
64609;SDS011;51019;46.090;6.350;2023-09-18T14:15:22;2.72;;;0.90;;
64609;SDS011;51019;46.090;6.350;2023-09-18T14:17:49;4.50;;;1.42;;
64609;SDS011;51019;46.090;6.350;2023-09-18T14:20:17;5.22;;;1.30;;
64609;SDS011;51019;46.090;6.350;2023-09-18T14:22:45;6.68;;;1.40;;
64609;SDS011;51019;46.090;6.350;2023-09-18T14:25:14;4.97;;;1.30;;
64609;SDS011;51019;46.090;6.350;2023-09-18T14:27:41;6.20;;;1.60;;
64609;SDS011;51019;46.090;6.350;2023-09-18T14:30:08;6.05;;;1.40;;
64609;SDS011;51019;46.090;6.350;2023-09-18T14:32:38;5.80;;;1.55;;
64609;SDS011;51019;46.090;6.350;2023-09-18T14:35:06;3.40;;;1.17;;
64609;SDS011;51019;46.090;6.350;2023-09-18T14:37:35;11.30;;;1.48;;
64609;SDS011;51019;46.090;6.350;2023-09-18T14:40:02;5.70;;;1.23;;
64609;SDS011;51019;46.090;6.350;2023-09-18T14:42:29;9.07;;;1.60;;
64609;SDS011;51019;46.090;6.350;2023-09-18T14:44:56;3.00;;;1.00;;
64609;SDS011;51019;46.090;6.350;2023-09-18T14:47:26;5.70;;;1.40;;
64609;SDS011;51019;46.090;6.350;2023-09-18T14:49:54;6.45;;;1.30;;
64609;SDS011;51019;46.090;6.350;2023-09-18T14:52:23;2.47;;;1.02;;
64609;SDS011;51019;46.090;6.350;2023-09-18T14:54:52;7.20;;;1.45;;